createdAt,value
2023-02-01T00:00:36.177Z,2.90
2023-02-01T00:05:59.878Z,2.80
2023-02-01T00:11:06.803Z,2.50
2023-02-01T00:16:18.636Z,2.70
2023-02-01T00:21:22.446Z,2.90
2023-02-01T00:26:40.046Z,3.00
2023-02-01T00:31:43.606Z,2.90
2023-02-01T00:36:46.186Z,2.90
2023-02-01T00:41:48.822Z,2.90
2023-02-01T00:46:51.512Z,3.00
2023-02-01T00:51:54.182Z,2.90
2023-02-01T00:56:56.794Z,2.90
2023-02-01T01:01:59.407Z,2.80
2023-02-01T01:07:01.976Z,2.80
2023-02-01T01:12:05.771Z,2.80
2023-02-01T01:17:08.363Z,2.80
2023-02-01T01:22:11.505Z,2.80
2023-02-01T01:27:15.091Z,2.70
2023-02-01T01:32:17.659Z,2.80
2023-02-01T01:37:20.324Z,2.80
2023-02-01T01:42:23.188Z,2.90
2023-02-01T01:47:30.453Z,2.90
2023-02-01T01:52:33.391Z,2.90
2023-02-01T01:57:41.022Z,2.90
2023-02-01T02:02:48.138Z,2.90
2023-02-01T02:07:54.148Z,3.00
2023-02-01T02:12:56.750Z,3.00
2023-02-01T02:18:33.053Z,3.00
2023-02-01T02:23:57.496Z,3.00
2023-02-01T02:29:18.733Z,3.10
2023-02-01T02:34:33.786Z,3.10
2023-02-01T02:40:08.409Z,3.10
2023-02-01T02:45:45.435Z,3.10
2023-02-01T02:51:44.951Z,3.10
2023-02-01T02:57:08.604Z,3.10
2023-02-01T03:02:31.219Z,2.90
2023-02-01T03:07:58.273Z,3.00
2023-02-01T03:13:15.334Z,3.00
2023-02-01T03:18:34.680Z,3.00
2023-02-01T03:23:39.703Z,3.10
2023-02-01T03:28:50.759Z,3.10
2023-02-01T03:33:53.551Z,3.10
2023-02-01T03:39:09.179Z,3.10
2023-02-01T03:44:17.133Z,3.20
2023-02-01T03:49:42.539Z,3.20
2023-02-01T03:54:47.665Z,3.20
2023-02-01T03:59:51.080Z,3.30
2023-02-01T04:04:53.779Z,3.20
2023-02-01T04:09:56.375Z,3.20
2023-02-01T04:14:59.208Z,3.30
2023-02-01T04:20:01.764Z,3.30
2023-02-01T04:25:06.819Z,3.20
2023-02-01T04:30:10.930Z,3.20
2023-02-01T04:35:13.725Z,3.20
2023-02-01T04:40:16.524Z,3.20
2023-02-01T04:45:19.540Z,3.20
2023-02-01T04:50:22.335Z,3.20
2023-02-01T04:55:25.011Z,3.10
2023-02-01T05:00:27.562Z,3.10
2023-02-01T05:05:30.443Z,3.20
2023-02-01T05:10:33.024Z,3.30
2023-02-01T05:15:35.592Z,3.30
2023-02-01T05:20:38.258Z,3.30
2023-02-01T05:25:40.756Z,3.30
2023-02-01T05:30:43.465Z,3.40
2023-02-01T05:35:46.000Z,3.30
2023-02-01T05:40:50.726Z,3.40
2023-02-01T05:45:53.956Z,3.40
2023-02-01T05:50:56.731Z,3.40
2023-02-01T05:55:59.316Z,3.50
2023-02-01T06:01:02.976Z,3.40
2023-02-01T06:06:05.865Z,3.50
2023-02-01T06:11:08.994Z,3.60
2023-02-01T06:16:11.574Z,3.60
2023-02-01T06:21:24.515Z,3.50
2023-02-01T06:26:29.600Z,3.60
2023-02-01T06:31:33.163Z,3.60
2023-02-01T06:36:36.880Z,3.60
2023-02-01T06:41:40.095Z,3.60
2023-02-01T06:46:42.967Z,3.60
2023-02-01T06:51:45.477Z,3.60
2023-02-01T06:56:48.177Z,3.60
2023-02-01T07:01:51.543Z,3.60
2023-02-01T07:06:54.100Z,3.70
2023-02-01T07:11:56.621Z,3.60
2023-02-01T07:16:59.150Z,3.60
2023-02-01T07:22:01.747Z,3.60
2023-02-01T07:27:05.037Z,3.70
2023-02-01T07:32:07.571Z,3.70
2023-02-01T07:37:10.058Z,3.90
2023-02-01T07:42:12.573Z,3.90
2023-02-01T07:47:15.178Z,4.10
2023-02-01T07:52:17.762Z,4.10
2023-02-01T07:57:20.553Z,4.10
2023-02-01T08:02:23.203Z,4.10
2023-02-01T08:07:26.046Z,4.10
2023-02-01T08:12:28.578Z,4.10
2023-02-01T08:17:31.623Z,4.10
2023-02-01T08:22:34.300Z,4.10
2023-02-01T08:27:38.127Z,4.40
2023-02-01T08:32:40.949Z,4.40
2023-02-01T08:37:43.415Z,4.20
2023-02-01T08:42:51.675Z,4.10
2023-02-01T08:47:54.405Z,4.50
2023-02-01T08:52:57.063Z,4.60
2023-02-01T08:57:59.587Z,5.00
2023-02-01T09:03:02.168Z,4.90
2023-02-01T09:08:05.189Z,4.60
2023-02-01T09:13:08.861Z,4.40
2023-02-01T09:18:11.396Z,4.50
2023-02-01T09:23:14.008Z,4.60
2023-02-01T09:28:16.511Z,4.80
2023-02-01T09:33:19.177Z,4.60
2023-02-01T09:38:21.998Z,4.20
2023-02-01T09:44:06.029Z,4.10
2023-02-01T09:49:18.643Z,5.70
2023-02-01T09:54:25.089Z,4.40
2023-02-01T09:59:39.053Z,4.50
2023-02-01T10:04:41.881Z,4.50
2023-02-01T10:10:11.417Z,4.30
2023-02-01T10:15:31.686Z,4.30
2023-02-01T10:20:47.847Z,4.40
2023-02-01T10:26:05.898Z,4.60
2023-02-01T10:31:10.717Z,4.90
2023-02-01T10:36:42.523Z,5.10
2023-02-01T10:41:45.155Z,5.20
2023-02-01T10:46:49.962Z,5.30
2023-02-01T10:52:07.504Z,5.60
2023-02-01T10:57:25.679Z,5.80
2023-02-01T11:02:32.180Z,3.20
2023-02-01T11:07:35.960Z,5.90
2023-02-01T11:12:39.288Z,6.10
2023-02-01T11:17:45.918Z,6.10
2023-02-01T11:22:53.906Z,6.20
2023-02-01T11:27:57.905Z,6.10
2023-02-01T11:33:02.654Z,6.00
2023-02-01T11:38:21.293Z,6.10
2023-02-01T11:43:29.429Z,6.50
2023-02-01T11:48:34.050Z,6.20
2023-02-01T11:54:01.552Z,6.00
2023-02-01T11:59:22.028Z,6.10
2023-02-01T12:04:49.530Z,5.90
2023-02-01T12:10:14.144Z,6.00
2023-02-01T12:15:36.864Z,5.80
2023-02-01T12:20:58.311Z,5.30
2023-02-01T12:26:10.136Z,4.90
2023-02-01T12:31:24.950Z,4.70
2023-02-01T12:36:42.867Z,4.70
2023-02-01T12:41:50.966Z,4.70
2023-02-01T12:47:22.901Z,5.00
2023-02-01T12:52:51.634Z,5.50
2023-02-01T12:58:15.182Z,5.70
2023-02-01T13:03:30.457Z,5.40
2023-02-01T13:08:52.257Z,5.10
2023-02-01T13:14:17.079Z,5.20
2023-02-01T13:19:31.546Z,5.10
2023-02-01T13:24:51.505Z,5.00
2023-02-01T13:30:16.958Z,5.10
2023-02-01T13:36:01.914Z,4.90
2023-02-01T13:41:27.800Z,4.80
2023-02-01T13:46:31.295Z,4.80
2023-02-01T13:51:44.095Z,4.80
2023-02-01T13:56:46.760Z,4.60
2023-02-01T14:01:49.893Z,4.60
2023-02-01T14:06:55.523Z,4.60
2023-02-01T14:12:19.630Z,4.60
2023-02-01T14:17:33.405Z,4.70
2023-02-01T14:22:36.114Z,4.90
2023-02-01T14:27:39.737Z,5.00
2023-02-01T14:32:47.582Z,4.80
2023-02-01T14:37:55.079Z,4.80
2023-02-01T14:42:58.173Z,4.60
2023-02-01T14:48:07.096Z,4.40
2023-02-01T14:53:09.761Z,4.30
2023-02-01T14:58:34.622Z,4.20
2023-02-01T15:03:53.807Z,4.20
2023-02-01T15:09:29.472Z,4.20
2023-02-01T15:14:42.022Z,4.10
2023-02-01T15:19:58.101Z,4.10
2023-02-01T15:25:01.501Z,4.10
2023-02-01T15:30:11.755Z,4.00
2023-02-01T15:35:33.211Z,3.90
2023-02-01T15:40:35.804Z,3.90
2023-02-01T15:45:38.375Z,3.80
2023-02-01T15:50:41.641Z,3.80
2023-02-01T15:55:45.226Z,3.70
2023-02-01T16:01:07.900Z,3.70
2023-02-01T16:06:29.403Z,3.70
2023-02-01T16:11:40.797Z,3.60
2023-02-01T16:16:43.526Z,3.60
2023-02-01T16:21:46.864Z,3.50
2023-02-01T16:26:49.667Z,3.30
2023-02-01T16:31:53.010Z,3.40
2023-02-01T16:36:58.111Z,3.50
2023-02-01T16:42:01.475Z,3.60
2023-02-01T16:47:13.978Z,3.60
2023-02-01T16:52:21.772Z,3.60
2023-02-01T16:57:24.871Z,3.30
2023-02-01T17:02:27.947Z,3.30
2023-02-01T17:07:30.859Z,3.40
2023-02-01T17:12:34.184Z,3.50
2023-02-01T17:17:39.723Z,3.60
2023-02-01T17:22:42.334Z,3.60
2023-02-01T17:27:45.540Z,3.60
2023-02-01T17:32:48.185Z,3.60
2023-02-01T17:37:52.328Z,3.50
2023-02-01T17:42:57.915Z,3.40
2023-02-01T17:48:00.529Z,3.40
2023-02-01T17:53:03.687Z,3.50
2023-02-01T17:58:07.477Z,3.60
2023-02-01T18:03:26.602Z,3.20
2023-02-01T18:08:30.662Z,3.20
2023-02-01T18:13:33.681Z,3.40
2023-02-01T18:18:38.084Z,3.50
2023-02-01T18:23:41.491Z,3.50
2023-02-01T18:28:44.859Z,3.30
2023-02-01T18:33:47.825Z,3.30
2023-02-01T18:38:50.972Z,3.30
2023-02-01T18:43:53.695Z,3.20
2023-02-01T18:48:57.447Z,3.20
2023-02-01T18:54:00.169Z,3.10
2023-02-01T18:59:02.803Z,3.10
2023-02-01T19:04:09.517Z,3.00
2023-02-01T19:09:15.932Z,2.90
2023-02-01T19:14:18.561Z,2.80
2023-02-01T19:19:21.234Z,2.80
2023-02-01T19:24:28.126Z,2.80
2023-02-01T19:29:31.693Z,2.70
2023-02-01T19:34:34.196Z,2.80
2023-02-01T19:39:41.895Z,2.90
2023-02-01T19:44:44.599Z,3.00
2023-02-01T19:49:47.149Z,3.10
2023-02-01T19:54:49.934Z,3.10
2023-02-01T19:59:52.647Z,3.20
2023-02-01T20:04:55.194Z,3.30
2023-02-01T20:09:57.876Z,3.30
2023-02-01T20:15:00.635Z,3.30
2023-02-01T20:20:04.650Z,3.30
2023-02-01T20:25:11.697Z,3.10
2023-02-01T20:30:20.071Z,3.10
2023-02-01T20:40:26.314Z,3.20
2023-02-01T20:45:29.168Z,3.40
2023-02-01T20:50:32.003Z,3.40
2023-02-01T20:55:34.811Z,3.40
2023-02-01T21:00:37.518Z,3.40
2023-02-01T21:05:40.240Z,3.50
2023-02-01T21:10:43.509Z,3.50
2023-02-01T21:15:47.233Z,3.50
2023-02-01T21:20:50.058Z,3.50
2023-02-01T21:25:52.805Z,3.50
2023-02-01T21:30:55.469Z,3.30
2023-02-01T21:35:58.109Z,3.30
2023-02-01T21:41:19.667Z,3.00
2023-02-01T21:46:22.212Z,2.90
2023-02-01T21:51:25.587Z,2.90
2023-02-01T21:56:28.041Z,2.50
2023-02-01T22:01:30.940Z,2.80
2023-02-01T22:06:39.693Z,2.90
2023-02-01T22:11:42.336Z,2.90
2023-02-01T22:16:45.258Z,2.90
2023-02-01T22:21:48.685Z,3.00
2023-02-01T22:26:51.648Z,3.00
2023-02-01T22:31:54.680Z,3.10
2023-02-01T22:36:57.288Z,3.00
2023-02-01T22:41:59.851Z,3.00
2023-02-01T22:47:02.313Z,3.00
2023-02-01T22:52:04.914Z,3.00
2023-02-01T22:57:08.061Z,3.10
2023-02-01T23:02:10.770Z,3.10
2023-02-01T23:07:13.349Z,3.00
2023-02-01T23:12:15.922Z,2.80
2023-02-01T23:17:18.495Z,2.80
2023-02-01T23:22:21.163Z,2.70
2023-02-01T23:27:23.860Z,2.50
2023-02-01T23:32:26.434Z,2.40
2023-02-01T23:37:29.401Z,2.20
2023-02-01T23:42:32.063Z,2.40
2023-02-01T23:47:34.774Z,2.50
2023-02-01T23:52:37.254Z,2.70
2023-02-01T23:57:39.928Z,2.70
